Hauptseite
METAR-TAF:

METAR-TAF

Flughäfen :

William H. Morse State Airport

Bennington, Vermont, Vereinigte Staaten

Breite: 42-53-24N, Länge: 073-14-47W, Höhe: 252 m

Beobachtung

Neuester Wetterbericht von vor 42 Minuten, um 07:54 UTC
Wind 4 kt aus Süd/Südost
Temperatur 3°C
Luftfeuchtigkeit 87%
Luftdruck 1000 hPa
Sichtweite: 16.1 km
Aufgelockert bewölkt in der Höhe von 3800 ft

METAR: KDDH 090754Z AUTO 16004KT 10SM SCT038 03/01 A2952 RMK AO2 SLP997 T00330011

Zeit: 04:36 (08:36 UTC)


TAF: fehlend

Wetterbeobachtungen und Prognosen von mehr als 4000 Flughäfen (METAR und TAF Bericht).

Die verfügbaren Stationen werden durch gelbe und rote Markierungen auf der Karte dargestellt.

Führen Sie die Maus auf sie, um den Namen der Station zu sehen.

Darauf klicken, um die Beobachtung von Wetterbeobachtungen und Prognosen zu sehen.

Um die Karte zu ändern : klicken Sie auf den grünen Tasten mit einem schwarzen Kreuz Zum Vergrößern, auf den grünen Button mit einem Gedankenstrich zu verkleinern, oder auf die grünen Pfeile für benachbarte Karten.


METAR-TAF: